Magne Viking — OURK2 — position and weather

sailwx.info

Track history (hours):
 
Tides and Currents Weather Stations Pressure Air Temp Water Temp Dewpoint Dewpoint Depression Visibility Wind Speed Wind Dir Waves Ship Positions

Magne Viking

Last reported at 2016-Aug-25 04:29 UTC. Time now 2016-Aug-28 22:27 UTC.
Position N 59°56' E 005°29'.

Length 85 m; draft 6.6 m.

Type: Tug. MMSI: 219375000.

Date/timePositionNaut miles runAvg speedWind from/ knotsBaromVisibWave heightAir tempDewpointWater temp
2016-Aug-25 04:29N 59°56' E 005°29'1112.0
2016-Aug-25 03:33N 59°45' E 005°35'0 0.1
2016-Aug-25 02:33N 59°45' E 005°35'0 0.1
2016-Aug-25 01:31N 59°45' E 005°35'0 0.0
2016-Aug-25 00:33N 59°45' E 005°35'0 0.0
2016-Aug-24 23:33N 59°45' E 005°35'0 0.0
2016-Aug-24 22:34N 59°45' E 005°35'0 0.0
2016-Aug-24 21:33N 59°45' E 005°35'0 0.0
2016-Aug-24 20:33N 59°45' E 005°35'0 0.0
2016-Aug-24 19:32N 59°45' E 005°35'0 0.0
2016-Aug-24 18:32N 59°45' E 005°35'0 0.0
2016-Aug-24 17:31N 59°45' E 005°35'0 0.0
2016-Aug-24 16:31N 59°45' E 005°35'0 0.0
2016-Aug-24 15:33N 59°45' E 005°35'0 0.0
2016-Aug-23 16:32N 59°45' E 005°36'0 0.0
2016-Aug-23 15:33N 59°45' E 005°36'0 0.0
2016-Aug-23 14:29N 59°45' E 005°36'326.4
2016-Aug-23 14:21N 59°46' E 005°29'3 4.1
2016-Aug-23 13:31N 59°45' E 005°36'1 1.4
2016-Aug-23 12:33N 59°46' E 005°35'3 3.1
2016-Aug-23 11:33N 59°49' E 005°33'3 3.4
2016-Aug-23 10:33N 59°53' E 005°32'4 3.5
2016-Aug-23 09:31N 59°56' E 005°29'  
Track history (hours):
 
Tides and Currents Weather Stations Pressure Air Temp Water Temp Dewpoint Dewpoint Depression Visibility Wind Speed Wind Dir Waves Ship Positions

Magne Viking

Last reported at 2016-Aug-25 04:29 UTC. Time now 2016-Aug-28 22:27 UTC.
Position N 59°56' E 005°29'.

Length 85 m; draft 6.6 m.

Type: Tug. MMSI: 219375000.

Date/timePositionNaut miles runAvg speedWind from/ knotsBaromVisibWave heightAir tempDewpointWater temp
2016-Aug-25 04:29N 59°56' E 005°29'1112.0
2016-Aug-25 03:33N 59°45' E 005°35'0 0.1
2016-Aug-25 02:33N 59°45' E 005°35'0 0.1
2016-Aug-25 01:31N 59°45' E 005°35'0 0.0
2016-Aug-25 00:33N 59°45' E 005°35'0 0.0
2016-Aug-24 23:33N 59°45' E 005°35'0 0.0
2016-Aug-24 22:34N 59°45' E 005°35'0 0.0
2016-Aug-24 21:33N 59°45' E 005°35'0 0.0
2016-Aug-24 20:33N 59°45' E 005°35'0 0.0
2016-Aug-24 19:32N 59°45' E 005°35'0 0.0
2016-Aug-24 18:32N 59°45' E 005°35'0 0.0
2016-Aug-24 17:31N 59°45' E 005°35'0 0.0
2016-Aug-24 16:31N 59°45' E 005°35'0 0.0
2016-Aug-24 15:33N 59°45' E 005°35'0 0.0
2016-Aug-23 16:32N 59°45' E 005°36'0 0.0
2016-Aug-23 15:33N 59°45' E 005°36'0 0.0
2016-Aug-23 14:29N 59°45' E 005°36'326.4
2016-Aug-23 14:21N 59°46' E 005°29'3 4.1
2016-Aug-23 13:31N 59°45' E 005°36'1 1.4
2016-Aug-23 12:33N 59°46' E 005°35'3 3.1
2016-Aug-23 11:33N 59°49' E 005°33'3 3.4
2016-Aug-23 10:33N 59°53' E 005°32'4 3.5
2016-Aug-23 09:31N 59°56' E 005°29'  

Dump ship's entire track history